createdAt,value
2018-05-03T00:01:26.287Z,99788.75
2018-05-03T00:03:53.671Z,99793.31
2018-05-03T00:06:21.059Z,99798.14
2018-05-03T00:08:48.446Z,99796.44
2018-05-03T00:11:15.831Z,99794.66
2018-05-03T00:13:43.227Z,99802.63
2018-05-03T00:16:10.607Z,99796.88
2018-05-03T00:18:38.018Z,99804.31
2018-05-03T00:21:05.401Z,99798.55
2018-05-03T00:23:32.783Z,99805.03
2018-05-03T00:26:00.171Z,99808.28
2018-05-03T00:28:27.560Z,99811.75
2018-05-03T00:30:54.938Z,99809.53
2018-05-03T00:33:22.322Z,99810.58
2018-05-03T00:35:49.715Z,99818.21
2018-05-03T00:38:17.101Z,99814.05
2018-05-03T00:40:44.614Z,99819.00
2018-05-03T00:43:12.008Z,99816.55
2018-05-03T00:45:39.391Z,99817.71
2018-05-03T00:48:06.780Z,99821.30
2018-05-03T00:50:34.163Z,99823.59
2018-05-03T00:53:01.623Z,99823.72
2018-05-03T00:55:29.047Z,99819.64
2018-05-03T00:57:56.433Z,99826.80
2018-05-03T01:00:23.811Z,99818.80
2018-05-03T01:02:51.193Z,99826.30
2018-05-03T01:05:18.580Z,99827.64
2018-05-03T01:07:45.966Z,99821.47
2018-05-03T01:10:13.355Z,99818.50
2018-05-03T01:12:40.742Z,99822.97
2018-05-03T01:15:08.115Z,99829.06
2018-05-03T01:17:35.503Z,99826.09
2018-05-03T01:20:02.888Z,99831.44
2018-05-03T01:22:30.274Z,99833.80
2018-05-03T01:24:57.662Z,99831.80
2018-05-03T01:27:25.063Z,99828.22
2018-05-03T01:29:52.465Z,99842.14
2018-05-03T01:32:19.846Z,99842.03
2018-05-03T01:34:58.928Z,99847.06
2018-05-03T01:37:26.307Z,99845.85
2018-05-03T01:39:53.828Z,99844.72
2018-05-03T01:42:21.216Z,99844.09
2018-05-03T01:44:48.599Z,99847.87
2018-05-03T01:47:15.982Z,99856.14
2018-05-03T01:49:43.367Z,99858.98
2018-05-03T01:52:10.759Z,99859.63
2018-05-03T01:54:38.139Z,99864.55
2018-05-03T01:57:05.523Z,99866.13
2018-05-03T01:59:32.907Z,99865.62
2018-05-03T02:02:00.299Z,99873.09
2018-05-03T02:04:27.679Z,99872.41
2018-05-03T02:06:55.071Z,99882.34
2018-05-03T02:09:22.459Z,99883.70
2018-05-03T02:11:49.855Z,99885.91
2018-05-03T02:14:17.248Z,99889.88
2018-05-03T02:16:44.627Z,99901.09
2018-05-03T02:19:12.118Z,99903.03
2018-05-03T02:21:39.515Z,99913.26
2018-05-03T02:24:06.891Z,99914.77
2018-05-03T02:26:34.280Z,99918.68
2018-05-03T02:29:01.672Z,99923.90
2018-05-03T02:31:29.056Z,99924.19
2018-05-03T02:33:56.460Z,99923.14
2018-05-03T02:36:24.115Z,99922.68
2018-05-03T02:38:51.507Z,99920.20
2018-05-03T02:41:18.890Z,99924.20
2018-05-03T02:43:46.274Z,99932.34
2018-05-03T02:46:13.660Z,99931.78
2018-05-03T02:48:41.046Z,99930.34
2018-05-03T02:51:08.427Z,99936.70
2018-05-03T02:53:35.839Z,99936.33
2018-05-03T02:56:03.236Z,99932.02
2018-05-03T02:58:42.235Z,99942.97
2018-05-03T03:01:26.979Z,99944.81
2018-05-03T03:04:11.935Z,99944.47
2018-05-03T03:10:25.039Z,99952.45
2018-05-03T03:16:23.010Z,99961.73
2018-05-03T03:19:07.767Z,99964.35
2018-05-03T03:21:52.712Z,99969.70
2018-05-03T03:27:41.397Z,99975.41
2018-05-03T03:30:20.615Z,99976.75
2018-05-03T03:32:59.775Z,99984.77
2018-05-03T03:38:46.524Z,99988.73
2018-05-03T03:41:25.631Z,99992.03
2018-05-03T03:44:04.771Z,99987.81
2018-05-03T03:46:32.179Z,99980.63
2018-05-03T03:48:59.565Z,99983.77
2018-05-03T03:51:27.027Z,99984.55
2018-05-03T03:53:54.419Z,99981.98
2018-05-03T03:56:21.799Z,99983.56
2018-05-03T03:58:49.182Z,99977.42
2018-05-03T04:01:16.573Z,99978.16
2018-05-03T04:06:34.490Z,99990.89
2018-05-03T04:09:01.961Z,99993.69
2018-05-03T04:11:29.351Z,99998.58
2018-05-03T04:13:56.739Z,99992.64
2018-05-03T04:16:24.127Z,99996.95
2018-05-03T04:19:03.328Z,100005.51
2018-05-03T04:21:42.559Z,100013.02
2018-05-03T04:27:08.858Z,100004.47
2018-05-03T04:29:36.255Z,100013.45
2018-05-03T04:32:03.696Z,100018.53
2018-05-03T04:34:31.198Z,100021.71
2018-05-03T04:36:58.564Z,100022.02
2018-05-03T04:39:25.956Z,100032.31
2018-05-03T04:41:53.343Z,100037.50
2018-05-03T04:44:20.723Z,100051.19
2018-05-03T04:46:48.127Z,100051.62
2018-05-03T04:49:15.518Z,100056.12
2018-05-03T04:51:42.903Z,100056.34
2018-05-03T04:54:10.385Z,100061.44
2018-05-03T04:56:37.787Z,100065.19
2018-05-03T04:59:05.187Z,100074.17
2018-05-03T05:01:32.574Z,100076.13
2018-05-03T05:03:59.962Z,100083.41
2018-05-03T05:06:27.411Z,100084.05
2018-05-03T05:08:54.798Z,100091.02
2018-05-03T05:11:22.324Z,100094.87
2018-05-03T05:13:49.718Z,100097.33
2018-05-03T05:16:17.103Z,100107.72
2018-05-03T05:18:44.499Z,100108.12
2018-05-03T05:21:11.891Z,100114.23
2018-05-03T05:23:39.282Z,100124.34
2018-05-03T05:26:06.680Z,100124.30
2018-05-03T05:28:34.066Z,100131.33
2018-05-03T05:31:01.471Z,100132.13
2018-05-03T05:33:28.856Z,100132.78
2018-05-03T05:35:56.276Z,100140.42
2018-05-03T05:38:23.862Z,100145.19
2018-05-03T05:40:51.243Z,100143.88
2018-05-03T05:43:18.635Z,100157.18
2018-05-03T05:45:46.035Z,100156.95
2018-05-03T05:48:13.441Z,100156.53
2018-05-03T05:50:40.836Z,100159.34
2018-05-03T05:53:08.222Z,100161.72
2018-05-03T05:55:35.644Z,100167.63
2018-05-03T05:58:03.015Z,100173.65
2018-05-03T06:00:30.459Z,100173.71
2018-05-03T06:02:57.835Z,100172.11
2018-05-03T06:05:25.323Z,100173.80
2018-05-03T06:07:52.699Z,100176.95
2018-05-03T06:10:20.155Z,100176.84
2018-05-03T06:12:47.495Z,100179.31
2018-05-03T06:15:14.875Z,100181.12
2018-05-03T06:17:42.262Z,100179.73
2018-05-03T06:20:09.659Z,100185.55
2018-05-03T06:22:37.047Z,100189.98
2018-05-03T06:25:04.451Z,100193.39
2018-05-03T06:27:31.834Z,100194.13
2018-05-03T06:29:59.219Z,100191.91
2018-05-03T06:32:26.615Z,100194.16
2018-05-03T06:34:53.998Z,100195.23
2018-05-03T06:37:21.410Z,100195.46
2018-05-03T06:39:48.799Z,100197.16
2018-05-03T06:42:16.183Z,100201.05
2018-05-03T06:44:43.574Z,100209.34
2018-05-03T06:47:11.003Z,100207.52
2018-05-03T06:49:38.392Z,100204.16
2018-05-03T06:52:05.775Z,100204.09
2018-05-03T06:54:33.195Z,100212.67
2018-05-03T06:57:00.584Z,100216.41
2018-05-03T06:59:27.972Z,100221.20
2018-05-03T07:01:55.379Z,100224.02
2018-05-03T07:04:22.851Z,100222.42
2018-05-03T07:06:50.236Z,100222.16
2018-05-03T07:09:17.606Z,100227.59
2018-05-03T07:11:44.996Z,100225.09
2018-05-03T07:14:12.431Z,100235.27
2018-05-03T07:16:39.830Z,100243.96
2018-05-03T07:19:07.227Z,100243.61
2018-05-03T07:21:34.611Z,100244.97
2018-05-03T07:24:02.007Z,100243.50
2018-05-03T07:26:29.394Z,100253.17
2018-05-03T07:28:56.816Z,100255.91
2018-05-03T07:31:24.207Z,100262.08
2018-05-03T07:33:51.600Z,100265.41
2018-05-03T07:36:18.995Z,100262.86
2018-05-03T07:38:46.376Z,100278.48
2018-05-03T07:41:13.775Z,100270.64
2018-05-03T07:43:41.207Z,100280.23
2018-05-03T07:46:08.594Z,100284.14
2018-05-03T07:48:36.005Z,100289.39
2018-05-03T07:51:03.379Z,100289.36
2018-05-03T07:53:30.797Z,100287.15
2018-05-03T07:55:58.270Z,100293.66
2018-05-03T07:58:25.677Z,100301.11
2018-05-03T08:00:53.048Z,100303.08
2018-05-03T08:03:20.439Z,100302.08
2018-05-03T08:05:47.826Z,100315.05
2018-05-03T08:08:15.219Z,100314.70
2018-05-03T08:10:42.618Z,100318.22
2018-05-03T08:13:10.003Z,100318.75
2018-05-03T08:15:37.398Z,100309.95
2018-05-03T08:18:04.794Z,100314.30
2018-05-03T08:20:32.200Z,100317.95
2018-05-03T08:22:59.598Z,100327.75
2018-05-03T08:25:26.988Z,100336.42
2018-05-03T08:27:54.386Z,100327.38
2018-05-03T08:30:21.775Z,100336.36
2018-05-03T08:32:49.175Z,100336.45
2018-05-03T08:35:16.558Z,100342.16
2018-05-03T08:37:43.955Z,100350.80
2018-05-03T08:40:11.356Z,100348.74
2018-05-03T08:42:38.854Z,100349.74
2018-05-03T08:45:06.267Z,100358.45
2018-05-03T08:47:33.646Z,100361.91
2018-05-03T08:50:01.031Z,100360.76
2018-05-03T08:52:28.422Z,100367.06
2018-05-03T08:54:55.813Z,100367.28
2018-05-03T08:57:23.216Z,100369.96
2018-05-03T08:59:50.608Z,100369.37
2018-05-03T09:02:18.102Z,100367.58
2018-05-03T09:04:45.501Z,100369.37
2018-05-03T09:07:12.890Z,100371.54
2018-05-03T09:09:40.287Z,100377.44
2018-05-03T09:12:07.671Z,100375.70
2018-05-03T09:14:35.059Z,100382.52
2018-05-03T09:17:02.459Z,100384.10
2018-05-03T09:19:29.863Z,100375.50
2018-05-03T09:21:57.266Z,100377.42
2018-05-03T09:24:24.656Z,100370.84
2018-05-03T09:26:52.080Z,100377.22
2018-05-03T09:29:19.439Z,100380.05
2018-05-03T09:31:46.823Z,100381.33
2018-05-03T09:34:14.223Z,100376.23
2018-05-03T09:36:41.610Z,100384.61
2018-05-03T09:39:09.034Z,100388.73
2018-05-03T09:41:36.395Z,100389.58
2018-05-03T09:44:03.850Z,100386.27
2018-05-03T09:46:31.269Z,100387.37
2018-05-03T09:48:58.658Z,100382.52
2018-05-03T09:51:26.051Z,100384.40
2018-05-03T09:53:53.455Z,100383.97
2018-05-03T09:56:20.863Z,100394.10
2018-05-03T09:58:48.251Z,100393.66
2018-05-03T10:01:15.660Z,100401.47
2018-05-03T10:03:43.026Z,100397.02
2018-05-03T10:06:10.563Z,100399.94
2018-05-03T10:08:37.946Z,100397.20
2018-05-03T10:11:05.350Z,100395.56
2018-05-03T10:13:32.740Z,100389.89
2018-05-03T10:16:00.130Z,100394.77
2018-05-03T10:18:27.515Z,100386.02
2018-05-03T10:20:54.906Z,100387.56
2018-05-03T10:23:22.338Z,100388.38
2018-05-03T10:25:49.718Z,100388.23
2018-05-03T10:28:17.104Z,100392.63
2018-05-03T10:30:44.500Z,100392.39
2018-05-03T10:33:11.884Z,100394.15
2018-05-03T10:35:39.293Z,100402.07
2018-05-03T10:38:06.671Z,100400.67
2018-05-03T10:40:34.067Z,100399.09
2018-05-03T10:43:01.456Z,100395.05
2018-05-03T10:45:28.843Z,100397.76
2018-05-03T10:47:56.267Z,100396.80
2018-05-03T10:50:23.647Z,100394.48
2018-05-03T10:52:51.036Z,100399.41
2018-05-03T10:55:18.432Z,100391.10
2018-05-03T10:57:45.811Z,100395.53
2018-05-03T11:00:13.215Z,100390.11
2018-05-03T11:02:40.614Z,100388.53
2018-05-03T11:05:08.011Z,100387.13
2018-05-03T11:07:35.400Z,100392.25
2018-05-03T11:10:02.795Z,100389.51
2018-05-03T11:12:30.190Z,100382.09
2018-05-03T11:14:57.571Z,100385.69
2018-05-03T11:17:24.959Z,100381.11
2018-05-03T11:19:52.367Z,100385.96
2018-05-03T11:22:19.750Z,100386.50
2018-05-03T11:24:47.155Z,100383.84
2018-05-03T11:27:14.547Z,100378.67
2018-05-03T11:29:41.945Z,100374.73
2018-05-03T11:32:09.339Z,100381.59
2018-05-03T11:34:36.730Z,100383.94
2018-05-03T11:37:04.189Z,100385.95
2018-05-03T11:39:31.527Z,100385.66
2018-05-03T11:41:58.915Z,100390.86
2018-05-03T11:44:26.319Z,100386.19
2018-05-03T11:46:53.698Z,100382.22
2018-05-03T11:49:21.110Z,100398.02
2018-05-03T11:51:48.495Z,100396.84
2018-05-03T11:54:15.890Z,100394.57
2018-05-03T11:56:43.282Z,100392.95
2018-05-03T11:59:10.749Z,100395.77
2018-05-03T12:01:38.078Z,100399.59
2018-05-03T12:04:05.533Z,100399.53
2018-05-03T12:06:32.850Z,100401.84
2018-05-03T12:09:00.255Z,100402.53
2018-05-03T12:11:27.644Z,100413.03
2018-05-03T12:13:55.044Z,100414.44
2018-05-03T12:16:22.427Z,100411.75
2018-05-03T12:18:49.811Z,100417.52
2018-05-03T12:21:17.208Z,100414.49
2018-05-03T12:23:44.599Z,100415.20
2018-05-03T12:26:12.002Z,100416.97
2018-05-03T12:28:39.388Z,100420.64
2018-05-03T12:31:06.769Z,100419.80
2018-05-03T12:33:34.163Z,100427.33
2018-05-03T12:36:01.579Z,100422.77
2018-05-03T12:38:28.992Z,100422.06
2018-05-03T12:40:56.369Z,100426.57
2018-05-03T12:43:23.758Z,100416.52
2018-05-03T12:45:51.151Z,100419.06
2018-05-03T12:48:18.543Z,100417.86
2018-05-03T12:50:45.940Z,100413.42
2018-05-03T12:53:13.314Z,100419.83
2018-05-03T12:55:40.708Z,100408.27
2018-05-03T12:58:08.108Z,100409.55
2018-05-03T13:00:35.495Z,100411.88
2018-05-03T13:03:03.187Z,100415.60
2018-05-03T13:05:30.572Z,100414.06
2018-05-03T13:07:58.099Z,100425.08
2018-05-03T13:10:25.492Z,100416.23
2018-05-03T13:12:52.886Z,100411.55
2018-05-03T13:15:20.474Z,100419.16
2018-05-03T13:17:47.864Z,100419.21
2018-05-03T13:20:15.358Z,100413.28
2018-05-03T13:22:42.694Z,100406.47
2018-05-03T13:25:10.085Z,100414.88
2018-05-03T13:27:37.502Z,100417.06
2018-05-03T13:30:04.895Z,100409.44
2018-05-03T13:32:32.278Z,100406.34
2018-05-03T13:34:59.673Z,100407.82
2018-05-03T13:37:27.054Z,100410.11
2018-05-03T13:39:54.459Z,100407.06
2018-05-03T13:42:22.058Z,100408.30
2018-05-03T13:44:49.439Z,100409.34
2018-05-03T13:47:16.958Z,100406.02
2018-05-03T13:49:44.311Z,100406.22
2018-05-03T13:52:11.726Z,100396.20
2018-05-03T13:54:39.119Z,100400.91
2018-05-03T13:57:06.508Z,100398.12
2018-05-03T13:59:33.902Z,100399.00
2018-05-03T14:02:01.295Z,100393.71
2018-05-03T14:04:28.687Z,100403.98
2018-05-03T14:06:56.069Z,100397.23
2018-05-03T14:09:23.459Z,100401.53
2018-05-03T14:11:50.850Z,100400.53
2018-05-03T14:14:18.238Z,100399.13
2018-05-03T14:16:45.627Z,100392.08
2018-05-03T14:19:13.077Z,100391.09
2018-05-03T14:21:40.414Z,100389.72
2018-05-03T14:24:07.819Z,100390.50
2018-05-03T14:26:35.207Z,100389.97
2018-05-03T14:29:02.591Z,100399.29
2018-05-03T14:31:29.998Z,100395.31
2018-05-03T14:33:57.379Z,100388.26
2018-05-03T14:36:24.775Z,100382.66
2018-05-03T14:38:52.166Z,100382.36
2018-05-03T14:41:19.559Z,100379.56
2018-05-03T14:43:47.027Z,100376.02
2018-05-03T14:46:14.415Z,100385.67
2018-05-03T14:48:41.823Z,100377.02
2018-05-03T14:51:09.227Z,100378.80
2018-05-03T14:53:36.688Z,100383.35
2018-05-03T14:56:04.068Z,100392.42
2018-05-03T14:58:31.467Z,100389.74
2018-05-03T15:00:58.923Z,100395.22
2018-05-03T15:03:26.254Z,100390.52
2018-05-03T15:05:53.635Z,100387.73
2018-05-03T15:08:21.163Z,100394.25
2018-05-03T15:10:48.547Z,100389.89
2018-05-03T15:13:16.003Z,100394.59
2018-05-03T15:15:43.367Z,100394.02
2018-05-03T15:18:10.786Z,100397.00
2018-05-03T15:20:38.180Z,100391.44
2018-05-03T15:23:05.596Z,100399.23
2018-05-03T15:25:33.031Z,100395.42
2018-05-03T15:28:00.448Z,100393.80
2018-05-03T15:30:27.829Z,100398.87
2018-05-03T15:32:55.239Z,100397.43
2018-05-03T15:35:22.631Z,100400.16
2018-05-03T15:37:50.031Z,100397.70
2018-05-03T15:40:17.450Z,100409.95
2018-05-03T15:42:44.857Z,100411.33
2018-05-03T15:45:12.255Z,100411.64
2018-05-03T15:47:39.643Z,100410.93
2018-05-03T15:50:07.171Z,100409.78
2018-05-03T15:52:34.511Z,100412.02
2018-05-03T15:55:01.891Z,100418.00
2018-05-03T15:57:29.292Z,100418.09
2018-05-03T15:59:56.674Z,100419.04
2018-05-03T16:02:24.088Z,100425.36
2018-05-03T16:04:51.478Z,100418.02
2018-05-03T16:07:18.870Z,100419.55
2018-05-03T16:09:46.266Z,100409.88
2018-05-03T16:12:13.660Z,100416.16
2018-05-03T16:14:41.063Z,100418.72
2018-05-03T16:17:08.447Z,100412.06
2018-05-03T16:19:35.835Z,100410.48
2018-05-03T16:22:03.562Z,100415.02
2018-05-03T16:24:30.947Z,100419.65
2018-05-03T16:26:58.346Z,100428.66
2018-05-03T16:29:25.796Z,100421.75
2018-05-03T16:31:53.209Z,100419.73
2018-05-03T16:34:20.615Z,100425.98
2018-05-03T16:36:48.093Z,100413.52
2018-05-03T16:39:15.527Z,100420.67
2018-05-03T16:41:42.999Z,100424.22
2018-05-03T16:44:10.439Z,100424.84
2018-05-03T16:46:37.931Z,100422.12
2018-05-03T16:49:05.355Z,100424.94
2018-05-03T16:51:32.777Z,100427.80
2018-05-03T16:54:00.161Z,100433.87
2018-05-03T16:56:27.583Z,100434.36
2018-05-03T16:58:54.987Z,100438.70
2018-05-03T17:01:22.379Z,100434.70
2018-05-03T17:03:50.232Z,100437.22
2018-05-03T17:06:17.621Z,100436.20
2018-05-03T17:08:45.140Z,100439.58
2018-05-03T17:11:12.531Z,100445.01
2018-05-03T17:13:39.926Z,100444.59
2018-05-03T17:16:07.359Z,100442.75
2018-05-03T17:18:34.827Z,100442.78
2018-05-03T17:21:02.227Z,100445.54
2018-05-03T17:23:29.623Z,100442.02
2018-05-03T17:25:57.011Z,100445.00
2018-05-03T17:28:24.426Z,100454.06
2018-05-03T17:30:51.811Z,100451.52
2018-05-03T17:33:19.211Z,100447.41
2018-05-03T17:35:46.691Z,100457.61
2018-05-03T17:38:14.077Z,100458.97
2018-05-03T17:40:41.488Z,100459.47
2018-05-03T17:43:08.877Z,100464.37
2018-05-03T17:45:36.278Z,100465.16
2018-05-03T17:48:03.663Z,100468.88
2018-05-03T17:50:31.059Z,100468.34
2018-05-03T17:52:58.478Z,100469.97
2018-05-03T17:55:25.863Z,100469.52
2018-05-03T17:57:53.263Z,100473.84
2018-05-03T18:00:20.667Z,100475.85
2018-05-03T18:02:48.055Z,100478.80
2018-05-03T18:05:15.513Z,100477.77
2018-05-03T18:07:42.916Z,100481.49
2018-05-03T18:10:10.319Z,100487.56
2018-05-03T18:12:37.739Z,100491.70
2018-05-03T18:15:05.126Z,100495.36
2018-05-03T18:17:32.592Z,100494.59
2018-05-03T18:19:59.975Z,100504.86
2018-05-03T18:22:27.378Z,100509.11
2018-05-03T18:24:54.767Z,100511.47
2018-05-03T18:27:22.160Z,100513.39
2018-05-03T18:29:49.562Z,100513.41
2018-05-03T18:32:16.939Z,100516.44
2018-05-03T18:34:44.359Z,100521.63
2018-05-03T18:37:11.762Z,100523.85
2018-05-03T18:39:39.146Z,100528.11
2018-05-03T18:42:06.536Z,100533.81
2018-05-03T18:44:33.929Z,100542.75
2018-05-03T18:47:01.343Z,100540.67
2018-05-03T18:49:28.787Z,100546.58
2018-05-03T18:51:56.107Z,100556.20
2018-05-03T18:54:23.522Z,100559.19
2018-05-03T18:56:50.915Z,100558.95
2018-05-03T18:59:18.316Z,100563.48
2018-05-03T19:01:45.698Z,100563.56
2018-05-03T19:04:13.088Z,100565.16
2018-05-03T19:06:40.479Z,100564.83
2018-05-03T19:09:07.895Z,100567.42
2018-05-03T19:11:35.338Z,100570.89
2018-05-03T19:14:02.718Z,100581.48
2018-05-03T19:16:30.152Z,100590.86
2018-05-03T19:18:57.529Z,100589.13
2018-05-03T19:21:24.931Z,100589.23
2018-05-03T19:23:52.348Z,100586.03
2018-05-03T19:26:19.731Z,100589.34
2018-05-03T19:28:47.119Z,100593.86
2018-05-03T19:31:14.518Z,100598.74
2018-05-03T19:33:41.911Z,100606.75
2018-05-03T19:36:09.321Z,100600.77
2018-05-03T19:38:36.707Z,100609.16
2018-05-03T19:41:04.096Z,100602.34
2018-05-03T19:43:31.550Z,100610.70
2018-05-03T19:45:58.875Z,100605.77
2018-05-03T19:48:26.275Z,100608.08
2018-05-03T19:50:53.663Z,100617.13
2018-05-03T19:53:21.052Z,100617.45
2018-05-03T19:55:48.453Z,100616.42
2018-05-03T19:58:15.840Z,100623.57
2018-05-03T20:00:43.246Z,100622.30
2018-05-03T20:03:10.640Z,100623.50
2018-05-03T20:05:38.031Z,100624.49
2018-05-03T20:08:05.428Z,100629.12
2018-05-03T20:10:32.833Z,100631.70
2018-05-03T20:13:00.279Z,100642.11
2018-05-03T20:15:27.679Z,100632.88
2018-05-03T20:17:55.063Z,100636.31
2018-05-03T20:20:22.471Z,100638.13
2018-05-03T20:22:49.863Z,100641.68
2018-05-03T20:25:17.255Z,100645.46
2018-05-03T20:27:44.666Z,100644.34
2018-05-03T20:30:12.057Z,100646.80
2018-05-03T20:32:39.445Z,100647.94
2018-05-03T20:35:06.837Z,100645.70
2018-05-03T20:37:34.224Z,100641.27
2018-05-03T20:40:01.619Z,100642.02
2018-05-03T20:42:29.015Z,100640.81
2018-05-03T20:44:56.412Z,100642.98
2018-05-03T20:47:23.807Z,100643.33
2018-05-03T20:49:51.196Z,100642.81
2018-05-03T20:52:18.598Z,100641.48
2018-05-03T20:54:45.983Z,100641.06
2018-05-03T20:57:13.384Z,100643.03
2018-05-03T20:59:40.778Z,100643.67
2018-05-03T21:02:08.168Z,100639.67
2018-05-03T21:04:35.569Z,100638.67
2018-05-03T21:07:02.971Z,100644.53
2018-05-03T21:09:30.419Z,100642.47
2018-05-03T21:11:57.819Z,100652.17
2018-05-03T21:14:25.218Z,100649.09
2018-05-03T21:16:52.655Z,100646.15
2018-05-03T21:19:20.048Z,100643.16
2018-05-03T21:21:47.443Z,100649.44
2018-05-03T21:24:14.835Z,100650.78
2018-05-03T21:26:42.228Z,100649.17
2018-05-03T21:29:09.623Z,100646.73
2018-05-03T21:31:37.030Z,100645.78
2018-05-03T21:34:04.455Z,100639.52
2018-05-03T21:36:31.858Z,100646.73
2018-05-03T21:38:59.248Z,100645.30
2018-05-03T21:41:26.646Z,100653.92
2018-05-03T21:43:54.041Z,100653.94
2018-05-03T21:46:21.431Z,100654.36
2018-05-03T21:48:48.827Z,100658.48
2018-05-03T21:51:16.219Z,100663.70
2018-05-03T21:53:43.631Z,100667.70
2018-05-03T21:56:11.031Z,100658.77
2018-05-03T21:58:38.416Z,100660.02
2018-05-03T22:01:05.815Z,100656.69
2018-05-03T22:03:33.207Z,100655.41
2018-05-03T22:06:00.812Z,100653.58
2018-05-03T22:08:28.199Z,100655.62
2018-05-03T22:10:55.619Z,100658.16
2018-05-03T22:13:23.008Z,100657.23
2018-05-03T22:15:50.403Z,100664.42
2018-05-03T22:18:17.817Z,100662.14
2018-05-03T22:20:45.199Z,100660.00
2018-05-03T22:23:12.606Z,100670.13
2018-05-03T22:25:39.995Z,100666.84
2018-05-03T22:28:07.387Z,100671.27
2018-05-03T22:30:34.975Z,100672.70
2018-05-03T22:33:02.365Z,100670.13
2018-05-03T22:35:29.762Z,100677.02
2018-05-03T22:37:57.155Z,100674.63
2018-05-03T22:40:24.543Z,100673.59
2018-05-03T22:42:51.943Z,100663.94
2018-05-03T22:45:19.327Z,100664.81
2018-05-03T22:47:46.744Z,100667.28
2018-05-03T22:50:14.141Z,100666.23
2018-05-03T22:52:41.534Z,100662.53
2018-05-03T22:55:08.923Z,100667.34
2018-05-03T22:57:36.323Z,100666.62
2018-05-03T23:00:03.729Z,100665.81
2018-05-03T23:02:31.121Z,100665.83
2018-05-03T23:04:58.515Z,100677.63
2018-05-03T23:07:25.923Z,100674.83
2018-05-03T23:09:53.316Z,100669.88
2018-05-03T23:12:20.716Z,100668.09
2018-05-03T23:14:48.111Z,100664.78
2018-05-03T23:17:15.498Z,100671.06
2018-05-03T23:19:42.901Z,100661.94
2018-05-03T23:22:10.282Z,100667.06
2018-05-03T23:24:37.716Z,100663.77
2018-05-03T23:27:05.112Z,100671.17
2018-05-03T23:29:32.495Z,100672.69
2018-05-03T23:31:59.898Z,100664.71
2018-05-03T23:34:27.288Z,100658.95
2018-05-03T23:36:54.686Z,100660.49
2018-05-03T23:39:22.083Z,100658.58
2018-05-03T23:41:49.475Z,100654.97
2018-05-03T23:44:16.878Z,100655.33
2018-05-03T23:46:44.267Z,100652.22
2018-05-03T23:49:11.667Z,100646.19
2018-05-03T23:51:39.058Z,100651.50
2018-05-03T23:54:06.446Z,100649.23
2018-05-03T23:56:33.830Z,100648.72
2018-05-03T23:59:01.223Z,100645.74
